createdAt,value
2024-05-09T00:00:41.171Z,11.70
2024-05-09T00:03:27.397Z,13.20
2024-05-09T00:06:13.484Z,12.80
2024-05-09T00:08:59.203Z,11.70
2024-05-09T00:11:44.630Z,12.10
2024-05-09T00:14:30.593Z,9.70
2024-05-09T00:17:16.557Z,12.60
2024-05-09T00:20:02.323Z,13.40
2024-05-09T00:22:48.208Z,11.20
2024-05-09T00:25:33.932Z,12.60
2024-05-09T00:28:19.730Z,11.20
2024-05-09T00:31:05.064Z,11.70
2024-05-09T00:33:50.525Z,11.20
2024-05-09T00:36:36.372Z,12.50
2024-05-09T00:39:21.624Z,11.10
2024-05-09T00:42:07.083Z,11.20
2024-05-09T00:44:52.373Z,11.20
2024-05-09T00:47:37.972Z,14.50
2024-05-09T00:50:29.939Z,13.00
2024-05-09T00:53:21.763Z,11.80
2024-05-09T00:56:08.077Z,12.80
2024-05-09T00:58:54.615Z,10.60
2024-05-09T01:01:41.279Z,10.90
2024-05-09T01:04:27.284Z,7.70
2024-05-09T01:07:12.825Z,10.40
2024-05-09T01:09:58.195Z,10.60
2024-05-09T01:12:44.515Z,10.60
2024-05-09T01:15:30.574Z,10.50
2024-05-09T01:18:16.318Z,10.40
2024-05-09T01:21:02.106Z,10.30
2024-05-09T01:23:48.109Z,11.90
2024-05-09T01:26:33.968Z,10.60
2024-05-09T01:29:20.308Z,10.30
2024-05-09T01:32:06.460Z,10.60
2024-05-09T01:34:52.067Z,10.40
2024-05-09T01:37:37.880Z,10.60
2024-05-09T01:40:33.335Z,10.40
2024-05-09T01:43:23.537Z,10.40
2024-05-09T01:46:19.534Z,10.20
2024-05-09T01:49:05.242Z,9.80
2024-05-09T01:51:51.036Z,10.10
2024-05-09T01:54:37.398Z,10.10
2024-05-09T01:57:22.911Z,10.10
2024-05-09T02:00:10.294Z,10.80
2024-05-09T02:02:56.133Z,10.10
2024-05-09T02:05:42.373Z,10.10
2024-05-09T02:08:28.484Z,9.60
2024-05-09T02:11:14.449Z,9.90
2024-05-09T02:14:00.415Z,10.00
2024-05-09T02:16:46.598Z,11.30
2024-05-09T02:19:32.768Z,10.00
2024-05-09T02:22:18.333Z,11.80
2024-05-09T02:25:03.769Z,8.90
2024-05-09T02:27:49.553Z,9.90
2024-05-09T02:30:39.897Z,11.80
2024-05-09T02:33:27.787Z,10.00
2024-05-09T02:36:13.887Z,9.90
2024-05-09T02:38:59.295Z,10.60
2024-05-09T02:41:44.722Z,10.40
2024-05-09T02:44:30.205Z,10.70
2024-05-09T02:47:16.002Z,9.90
2024-05-09T02:50:01.851Z,9.90
2024-05-09T02:52:47.757Z,11.60
2024-05-09T02:55:33.994Z,9.90
2024-05-09T02:58:19.899Z,10.10
2024-05-09T03:01:05.752Z,9.50
2024-05-09T03:03:52.372Z,10.80
2024-05-09T03:06:44.103Z,10.30
2024-05-09T03:09:29.502Z,9.90
2024-05-09T03:12:14.959Z,10.20
2024-05-09T03:15:00.621Z,11.10
2024-05-09T03:17:46.594Z,10.40
2024-05-09T03:20:35.036Z,10.50
2024-05-09T03:23:21.894Z,12.20
2024-05-09T03:26:12.131Z,10.50
2024-05-09T03:28:58.033Z,10.50
2024-05-09T03:31:43.711Z,10.00
2024-05-09T03:34:29.617Z,10.70
2024-05-09T03:37:15.427Z,10.50
2024-05-09T03:40:02.701Z,10.40
2024-05-09T03:42:48.678Z,8.70
2024-05-09T03:45:33.898Z,10.50
2024-05-09T03:48:19.623Z,12.40
2024-05-09T03:51:05.310Z,10.50
2024-05-09T03:53:50.872Z,11.60
2024-05-09T03:56:36.275Z,10.70
2024-05-09T03:59:22.094Z,12.30
2024-05-09T04:02:07.964Z,10.50
2024-05-09T04:04:53.808Z,10.90
2024-05-09T04:07:42.571Z,8.70
2024-05-09T04:10:33.175Z,12.20
2024-05-09T04:13:20.415Z,12.00
2024-05-09T04:16:06.946Z,10.50
2024-05-09T04:18:52.634Z,10.40
2024-05-09T04:21:38.438Z,12.90
2024-05-09T04:24:23.814Z,10.40
2024-05-09T04:27:09.304Z,11.20
2024-05-09T04:29:55.102Z,10.40
2024-05-09T04:32:44.161Z,10.40
2024-05-09T04:35:29.987Z,10.50
2024-05-09T04:38:16.178Z,10.50
2024-05-09T04:41:01.957Z,10.50
2024-05-09T04:43:51.040Z,10.50
2024-05-09T04:46:36.735Z,11.60
2024-05-09T04:49:22.218Z,10.70
2024-05-09T04:52:08.022Z,10.60
2024-05-09T04:54:55.424Z,10.60
2024-05-09T04:57:42.509Z,10.50
2024-05-09T05:00:35.834Z,10.80
2024-05-09T05:03:23.764Z,10.10
2024-05-09T05:06:09.772Z,9.80
2024-05-09T05:08:55.545Z,10.80
2024-05-09T05:11:41.057Z,10.80
2024-05-09T05:14:27.108Z,10.60
2024-05-09T05:17:12.919Z,11.00
2024-05-09T05:19:58.926Z,10.90
2024-05-09T05:22:44.513Z,11.10
2024-05-09T05:25:30.417Z,10.70
2024-05-09T05:28:16.519Z,10.90
2024-05-09T05:31:02.173Z,11.00
2024-05-09T05:33:48.584Z,11.00
2024-05-09T05:36:34.224Z,10.90
2024-05-09T05:39:20.106Z,12.70
2024-05-09T05:42:05.759Z,11.00
2024-05-09T05:44:51.331Z,10.90
2024-05-09T05:47:38.656Z,11.20
2024-05-09T05:50:32.248Z,11.10
2024-05-09T05:53:21.688Z,12.70
2024-05-09T05:56:07.749Z,11.10
2024-05-09T05:58:53.106Z,11.10
2024-05-09T06:01:39.077Z,11.30
2024-05-09T06:04:24.919Z,12.70
2024-05-09T06:07:10.802Z,10.60
2024-05-09T06:09:56.356Z,11.30
2024-05-09T06:12:41.539Z,12.30
2024-05-09T06:15:27.474Z,11.50
2024-05-09T06:18:14.275Z,10.80
2024-05-09T06:20:59.855Z,11.60
2024-05-09T06:23:46.570Z,12.30
2024-05-09T06:26:32.453Z,12.60
2024-05-09T06:29:17.978Z,11.70
2024-05-09T06:32:03.585Z,11.90
2024-05-09T06:34:49.464Z,11.80
2024-05-09T06:37:35.352Z,14.10
2024-05-09T06:40:25.733Z,11.90
2024-05-09T06:43:20.230Z,12.00
2024-05-09T06:46:05.762Z,12.20
2024-05-09T06:48:52.853Z,12.50
2024-05-09T06:51:39.249Z,12.10
2024-05-09T06:54:24.749Z,12.90
2024-05-09T06:57:10.173Z,12.30
2024-05-09T06:59:59.745Z,14.30
2024-05-09T07:02:45.421Z,12.50
2024-05-09T07:05:31.304Z,13.60
2024-05-09T07:08:17.639Z,12.20
2024-05-09T07:11:04.560Z,12.10
2024-05-09T07:13:50.408Z,12.40
2024-05-09T07:16:36.067Z,12.50
2024-05-09T07:19:21.752Z,12.50
2024-05-09T07:22:07.379Z,12.70
2024-05-09T07:24:53.080Z,13.00
2024-05-09T07:27:38.629Z,12.90
2024-05-09T07:30:32.627Z,12.80
2024-05-09T07:33:22.422Z,12.70
2024-05-09T07:36:09.558Z,13.40
2024-05-09T07:38:55.271Z,13.20
2024-05-09T07:41:40.808Z,13.20
2024-05-09T07:44:26.887Z,13.30
2024-05-09T07:48:27.700Z,13.30
2024-05-09T07:53:36.559Z,13.60
2024-05-09T07:56:12.744Z,13.90
2024-05-09T07:58:58.700Z,13.90
2024-05-09T08:01:44.221Z,14.00
2024-05-09T08:04:30.130Z,14.10
2024-05-09T08:07:15.962Z,14.40
2024-05-09T08:10:01.868Z,14.40
2024-05-09T08:12:47.635Z,14.60
2024-05-09T08:15:33.571Z,14.80
2024-05-09T08:18:19.374Z,14.40
2024-05-09T08:21:05.272Z,15.20
2024-05-09T08:23:50.713Z,14.80
2024-05-09T08:26:36.592Z,14.80
2024-05-09T08:29:22.372Z,14.90
2024-05-09T08:32:12.687Z,16.70
2024-05-09T08:34:58.420Z,15.40
2024-05-09T08:37:44.259Z,15.30
2024-05-09T08:40:35.677Z,15.70
2024-05-09T08:43:23.741Z,16.60
2024-05-09T08:46:10.996Z,15.90
2024-05-09T08:48:57.409Z,16.90
2024-05-09T08:51:49.004Z,16.00
2024-05-09T08:54:35.688Z,16.10
2024-05-09T08:57:22.816Z,16.00
2024-05-09T09:00:12.703Z,16.00
2024-05-09T09:03:01.719Z,16.30
2024-05-09T09:06:02.134Z,15.90
2024-05-09T09:08:47.723Z,16.80
2024-05-09T09:11:33.661Z,16.90
2024-05-09T09:14:19.557Z,16.00
2024-05-09T09:17:15.661Z,17.60
2024-05-09T09:20:01.329Z,17.60
2024-05-09T09:22:46.861Z,15.70
2024-05-09T09:25:32.489Z,16.90
2024-05-09T09:28:18.457Z,16.10
2024-05-09T09:31:04.506Z,16.60
2024-05-09T09:33:50.389Z,16.10
2024-05-09T09:36:36.285Z,16.90
2024-05-09T09:39:24.787Z,17.00
2024-05-09T09:42:11.675Z,17.80
2024-05-09T09:45:04.334Z,17.80
2024-05-09T09:47:55.549Z,17.50
2024-05-09T09:50:42.069Z,17.50
2024-05-09T09:53:31.857Z,18.40
2024-05-09T09:56:18.598Z,18.00
2024-05-09T09:59:04.642Z,18.60
2024-05-09T10:01:50.558Z,18.80
2024-05-09T10:04:36.667Z,18.10
2024-05-09T10:07:23.139Z,18.30
2024-05-09T10:10:13.774Z,18.30
2024-05-09T10:13:05.964Z,18.20
2024-05-09T10:15:53.062Z,17.80
2024-05-09T10:18:40.163Z,17.80
2024-05-09T10:21:27.209Z,18.10
2024-05-09T10:24:13.027Z,17.60
2024-05-09T10:26:58.311Z,17.70
2024-05-09T10:29:53.346Z,18.10
2024-05-09T10:32:39.864Z,18.30
2024-05-09T10:35:26.882Z,19.60
2024-05-09T10:38:12.548Z,18.70
2024-05-09T10:41:00.011Z,18.90
2024-05-09T10:43:45.525Z,19.00
2024-05-09T10:46:31.022Z,19.40
2024-05-09T10:49:17.080Z,19.20
2024-05-09T10:52:03.764Z,19.00
2024-05-09T10:54:49.994Z,19.00
2024-05-09T10:57:39.851Z,19.40
2024-05-09T11:00:36.394Z,19.50
2024-05-09T11:03:23.165Z,19.50
2024-05-09T11:06:09.931Z,19.20
2024-05-09T11:08:56.389Z,19.30
2024-05-09T11:11:41.894Z,19.50
2024-05-09T11:14:27.667Z,19.50
2024-05-09T11:17:13.090Z,19.40
2024-05-09T11:20:00.495Z,19.50
2024-05-09T11:22:46.250Z,19.30
2024-05-09T11:25:33.269Z,19.60
2024-05-09T11:28:19.283Z,22.90
2024-05-09T11:31:06.960Z,19.50
2024-05-09T11:33:54.673Z,19.30
2024-05-09T11:36:40.513Z,19.20
2024-05-09T11:39:26.470Z,18.80
2024-05-09T11:42:12.295Z,19.00
2024-05-09T11:44:57.714Z,19.80
2024-05-09T11:47:43.807Z,19.30
2024-05-09T11:50:32.963Z,18.90
2024-05-09T11:53:21.606Z,18.90
2024-05-09T11:56:07.511Z,19.80
2024-05-09T11:58:53.302Z,19.60
2024-05-09T12:01:38.978Z,19.20
2024-05-09T12:04:24.769Z,19.90
2024-05-09T12:07:12.895Z,20.30
2024-05-09T12:09:58.705Z,20.60
2024-05-09T12:12:44.876Z,20.10
2024-05-09T12:15:30.715Z,19.80
2024-05-09T12:18:16.582Z,20.00
2024-05-09T12:21:02.510Z,20.40
2024-05-09T12:23:48.019Z,20.80
2024-05-09T12:26:33.353Z,20.70
2024-05-09T12:29:18.837Z,20.80
2024-05-09T12:32:04.370Z,20.70
2024-05-09T12:34:50.248Z,21.80
2024-05-09T12:37:35.695Z,22.10
2024-05-09T12:40:30.717Z,22.30
2024-05-09T12:43:20.545Z,22.20
2024-05-09T12:46:06.164Z,21.60
2024-05-09T12:48:53.587Z,20.90
2024-05-09T12:51:39.430Z,21.10
2024-05-09T12:54:25.304Z,20.80
2024-05-09T12:57:10.658Z,20.50
2024-05-09T12:59:55.992Z,20.20
2024-05-09T13:02:41.369Z,20.10
2024-05-09T13:05:27.080Z,20.50
2024-05-09T13:08:13.294Z,20.10
2024-05-09T13:10:58.891Z,19.80
2024-05-09T13:13:44.624Z,20.10
2024-05-09T13:16:30.400Z,20.10
2024-05-09T13:19:18.449Z,20.10
2024-05-09T13:22:04.322Z,20.00
2024-05-09T13:24:50.031Z,20.30
2024-05-09T13:27:35.324Z,19.90
2024-05-09T13:30:29.245Z,20.30
2024-05-09T13:33:23.689Z,20.10
2024-05-09T13:36:09.495Z,20.10
2024-05-09T13:38:54.896Z,20.20
2024-05-09T13:41:40.065Z,20.20
2024-05-09T13:44:25.412Z,20.80
2024-05-09T13:47:10.861Z,20.60
2024-05-09T13:49:56.554Z,20.50
2024-05-09T13:52:41.850Z,21.10
2024-05-09T13:55:27.187Z,21.10
2024-05-09T13:58:13.064Z,21.90
2024-05-09T14:00:58.998Z,21.40
2024-05-09T14:03:44.883Z,20.60
2024-05-09T14:06:30.624Z,21.70
2024-05-09T14:09:16.659Z,20.90
2024-05-09T14:12:02.257Z,20.60
2024-05-09T14:14:48.053Z,21.10
2024-05-09T14:17:33.483Z,21.10
2024-05-09T14:20:27.952Z,22.20
2024-05-09T14:23:17.767Z,20.80
2024-05-09T14:26:03.510Z,20.80
2024-05-09T14:28:49.116Z,20.80
2024-05-09T14:31:37.888Z,21.70
2024-05-09T14:34:25.431Z,21.40
2024-05-09T14:37:11.865Z,21.30
2024-05-09T14:39:58.435Z,21.00
2024-05-09T14:42:44.226Z,21.10
2024-05-09T14:45:29.985Z,21.00
2024-05-09T14:48:15.866Z,20.90
2024-05-09T14:51:01.917Z,21.30
2024-05-09T14:53:47.197Z,20.80
2024-05-09T14:56:33.549Z,20.30
2024-05-09T14:59:19.278Z,20.30
2024-05-09T15:02:04.651Z,20.40
2024-05-09T15:04:50.619Z,20.40
2024-05-09T15:07:36.828Z,20.70
2024-05-09T15:10:31.084Z,21.00
2024-05-09T15:13:20.997Z,20.90
2024-05-09T15:16:07.005Z,20.40
2024-05-09T15:18:52.951Z,20.00
2024-05-09T15:21:38.731Z,19.80
2024-05-09T15:24:24.536Z,17.80
2024-05-09T15:27:10.201Z,20.70
2024-05-09T15:29:55.717Z,21.30
2024-05-09T15:32:41.215Z,22.00
2024-05-09T15:35:26.954Z,22.20
2024-05-09T15:38:13.029Z,23.40
2024-05-09T15:40:59.250Z,20.70
2024-05-09T15:43:44.992Z,22.10
2024-05-09T15:46:31.006Z,22.10
2024-05-09T15:49:16.744Z,22.00
2024-05-09T15:52:02.608Z,21.90
2024-05-09T15:54:48.267Z,22.20
2024-05-09T15:57:34.111Z,21.30
2024-05-09T16:00:28.469Z,22.20
2024-05-09T16:03:21.399Z,21.10
2024-05-09T16:06:07.057Z,19.70
2024-05-09T16:08:52.615Z,20.10
2024-05-09T16:11:37.818Z,21.20
2024-05-09T16:14:23.682Z,20.10
2024-05-09T16:17:09.157Z,20.90
2024-05-09T16:19:55.079Z,20.60
2024-05-09T16:22:40.383Z,20.80
2024-05-09T16:25:28.029Z,20.70
2024-05-09T16:28:14.160Z,21.00
2024-05-09T16:31:01.495Z,20.30
2024-05-09T16:33:47.406Z,20.50
2024-05-09T16:36:33.121Z,20.60
2024-05-09T16:39:18.812Z,21.10
2024-05-09T16:42:04.204Z,18.30
2024-05-09T16:44:49.536Z,20.40
2024-05-09T16:47:35.316Z,20.20
2024-05-09T16:50:28.750Z,20.10
2024-05-09T16:53:17.327Z,20.10
2024-05-09T16:56:02.953Z,19.70
2024-05-09T16:58:48.474Z,20.20
2024-05-09T17:01:34.134Z,20.10
2024-05-09T17:04:19.800Z,20.20
2024-05-09T17:07:06.093Z,19.80
2024-05-09T17:09:52.046Z,20.50
2024-05-09T17:12:38.024Z,20.30
2024-05-09T17:15:23.386Z,20.00
2024-05-09T17:18:08.730Z,20.60
2024-05-09T17:20:55.047Z,19.90
2024-05-09T17:23:41.005Z,21.00
2024-05-09T17:26:28.285Z,20.80
2024-05-09T17:29:14.148Z,21.00
2024-05-09T17:31:59.707Z,20.50
2024-05-09T17:34:45.022Z,20.80
2024-05-09T17:37:31.288Z,20.90
2024-05-09T17:40:20.712Z,21.20
2024-05-09T17:43:10.983Z,21.50
2024-05-09T17:45:57.216Z,20.90
2024-05-09T17:48:42.808Z,20.50
2024-05-09T17:51:30.847Z,19.90
2024-05-09T17:54:16.489Z,19.60
2024-05-09T17:57:01.925Z,19.20
2024-05-09T17:59:47.801Z,19.20
2024-05-09T18:02:33.612Z,19.10
2024-05-09T18:05:19.545Z,19.10
2024-05-09T18:08:06.054Z,19.00
2024-05-09T18:10:52.169Z,19.20
2024-05-09T18:13:38.700Z,19.00
2024-05-09T18:16:24.330Z,18.90
2024-05-09T18:19:10.029Z,18.90
2024-05-09T18:21:55.829Z,18.60
2024-05-09T18:24:41.641Z,18.50
2024-05-09T18:27:27.469Z,18.30
2024-05-09T18:30:24.094Z,18.20
2024-05-09T18:33:17.947Z,18.10
2024-05-09T18:36:03.885Z,18.10
2024-05-09T18:38:49.535Z,18.00
2024-05-09T18:41:34.774Z,17.70
2024-05-09T18:44:20.097Z,16.80
2024-05-09T18:47:05.510Z,17.60
2024-05-09T18:49:51.168Z,17.50
2024-05-09T18:52:36.964Z,19.30
2024-05-09T18:55:22.440Z,18.80
2024-05-09T18:58:08.326Z,17.40
2024-05-09T19:00:55.590Z,17.50
2024-05-09T19:03:42.518Z,17.50
2024-05-09T19:06:28.614Z,19.30
2024-05-09T19:09:14.350Z,16.70
2024-05-09T19:12:03.693Z,17.20
2024-05-09T19:14:49.091Z,15.90
2024-05-09T19:17:34.435Z,17.10
2024-05-09T19:20:28.178Z,17.40
2024-05-09T19:23:17.398Z,17.00
2024-05-09T19:26:03.271Z,16.90
2024-05-09T19:28:48.836Z,16.40
2024-05-09T19:31:34.529Z,17.00
2024-05-09T19:34:20.170Z,16.50
2024-05-09T19:37:06.120Z,16.90
2024-05-09T19:39:51.947Z,16.80
2024-05-09T19:42:37.851Z,16.60
2024-05-09T19:45:23.185Z,17.10
2024-05-09T19:48:09.362Z,17.30
2024-05-09T19:50:55.236Z,16.60
2024-05-09T19:53:40.863Z,16.40
2024-05-09T19:56:26.488Z,16.50
2024-05-09T19:59:12.319Z,16.40
2024-05-09T20:01:57.811Z,16.60
2024-05-09T20:04:45.910Z,16.30
2024-05-09T20:07:32.691Z,17.50
2024-05-09T20:10:23.898Z,17.20
2024-05-09T20:13:13.541Z,16.10
2024-05-09T20:16:01.358Z,16.00
2024-05-09T20:18:46.938Z,15.70
2024-05-09T20:21:32.601Z,18.90
2024-05-09T20:24:18.505Z,16.50
2024-05-09T20:27:03.912Z,16.10
2024-05-09T20:29:49.363Z,15.80
2024-05-09T20:32:34.660Z,15.20
2024-05-09T20:35:20.205Z,15.70
2024-05-09T20:38:06.308Z,15.60
2024-05-09T20:40:51.839Z,15.60
2024-05-09T20:43:37.437Z,15.60
2024-05-09T20:46:22.647Z,15.30
2024-05-09T20:49:08.809Z,15.40
2024-05-09T20:51:54.551Z,13.40
2024-05-09T20:54:40.199Z,13.60
2024-05-09T20:57:26.162Z,15.50
2024-05-09T21:00:18.369Z,15.40
2024-05-09T21:03:05.167Z,15.80
2024-05-09T21:05:51.187Z,15.30
2024-05-09T21:08:36.871Z,15.40
2024-05-09T21:11:23.085Z,15.20
2024-05-09T21:14:08.852Z,15.00
2024-05-09T21:16:54.379Z,14.90
2024-05-09T21:19:40.019Z,15.50
2024-05-09T21:22:25.252Z,15.60
2024-05-09T21:25:11.142Z,14.60
2024-05-09T21:27:56.999Z,14.50
2024-05-09T21:30:43.401Z,13.40
2024-05-09T21:33:29.015Z,16.60
2024-05-09T21:36:14.836Z,14.20
2024-05-09T21:39:00.138Z,14.50
2024-05-09T21:41:45.490Z,14.70
2024-05-09T21:44:31.528Z,14.10
2024-05-09T21:47:16.764Z,13.70
2024-05-09T21:50:01.942Z,14.90
2024-05-09T21:52:47.224Z,13.20
2024-05-09T21:55:32.476Z,13.60
2024-05-09T21:58:18.102Z,14.10
2024-05-09T22:01:05.388Z,14.70
2024-05-09T22:03:51.043Z,13.60
2024-05-09T22:06:36.835Z,13.90
2024-05-09T22:09:22.805Z,14.00
2024-05-09T22:12:08.492Z,14.20
2024-05-09T22:14:54.258Z,12.90
2024-05-09T22:17:40.728Z,14.00
2024-05-09T22:20:34.433Z,14.20
2024-05-09T22:23:23.822Z,13.50
2024-05-09T22:26:09.844Z,13.20
2024-05-09T22:28:55.111Z,14.70
2024-05-09T22:31:40.344Z,13.40
2024-05-09T22:34:25.817Z,13.40
2024-05-09T22:37:11.720Z,13.10
2024-05-09T22:39:57.466Z,13.90
2024-05-09T22:42:43.290Z,13.20
2024-05-09T22:45:28.587Z,14.20
2024-05-09T22:48:13.967Z,13.20
2024-05-09T22:50:59.640Z,13.30
2024-05-09T22:53:45.016Z,13.80
2024-05-09T22:56:30.390Z,13.20
2024-05-09T22:59:16.432Z,13.50
2024-05-09T23:02:02.168Z,13.10
2024-05-09T23:04:48.300Z,13.00
2024-05-09T23:07:33.790Z,13.70
2024-05-09T23:10:27.326Z,13.90
2024-05-09T23:13:17.590Z,12.80
2024-05-09T23:16:03.560Z,12.70
2024-05-09T23:18:49.515Z,12.60
2024-05-09T23:21:39.876Z,12.50
2024-05-09T23:24:25.273Z,11.90
2024-05-09T23:27:11.058Z,13.20
2024-05-09T23:29:56.300Z,13.40
2024-05-09T23:32:41.626Z,11.70
2024-05-09T23:35:27.534Z,13.40
2024-05-09T23:38:13.084Z,12.40
2024-05-09T23:40:58.862Z,12.20
2024-05-09T23:43:44.584Z,11.90
2024-05-09T23:46:29.953Z,12.30
2024-05-09T23:49:15.830Z,15.60
2024-05-09T23:52:01.556Z,12.00
2024-05-09T23:54:47.351Z,11.80
2024-05-09T23:57:33.085Z,11.80
